sensor_id;sensor_type;location;lat;lon;timestamp;P1;durP1;ratioP1;P2;durP2;ratioP2
20776;SDS011;10548;47.504;8.248;2023-12-29T00:02:17;10.73;;;7.50;;
20776;SDS011;10548;47.504;8.248;2023-12-29T00:04:44;10.80;;;7.40;;
20776;SDS011;10548;47.504;8.248;2023-12-29T00:07:12;11.47;;;6.97;;
20776;SDS011;10548;47.504;8.248;2023-12-29T00:09:39;11.10;;;7.37;;
20776;SDS011;10548;47.504;8.248;2023-12-29T00:12:08;14.57;;;7.23;;
20776;SDS011;10548;47.504;8.248;2023-12-29T00:14:39;9.43;;;7.20;;
20776;SDS011;10548;47.504;8.248;2023-12-29T00:17:07;9.63;;;7.00;;
20776;SDS011;10548;47.504;8.248;2023-12-29T00:19:34;17.50;;;8.00;;
20776;SDS011;10548;47.504;8.248;2023-12-29T00:22:02;10.83;;;7.70;;
20776;SDS011;10548;47.504;8.248;2023-12-29T00:24:30;11.53;;;7.50;;
20776;SDS011;10548;47.504;8.248;2023-12-29T00:27:02;12.20;;;7.37;;
20776;SDS011;10548;47.504;8.248;2023-12-29T00:29:29;15.57;;;8.00;;
20776;SDS011;10548;47.504;8.248;2023-12-29T00:32:01;14.57;;;7.47;;
20776;SDS011;10548;47.504;8.248;2023-12-29T00:34:30;12.47;;;7.20;;
20776;SDS011;10548;47.504;8.248;2023-12-29T00:36:59;9.83;;;6.53;;
20776;SDS011;10548;47.504;8.248;2023-12-29T00:39:27;10.30;;;6.43;;
20776;SDS011;10548;47.504;8.248;2023-12-29T00:41:56;12.87;;;7.17;;
20776;SDS011;10548;47.504;8.248;2023-12-29T00:44:24;10.37;;;7.00;;
20776;SDS011;10548;47.504;8.248;2023-12-29T00:46:51;9.20;;;7.00;;
20776;SDS011;10548;47.504;8.248;2023-12-29T00:49:20;10.03;;;6.60;;
20776;SDS011;10548;47.504;8.248;2023-12-29T00:51:48;11.53;;;7.10;;
20776;SDS011;10548;47.504;8.248;2023-12-29T00:54:15;9.07;;;6.60;;
20776;SDS011;10548;47.504;8.248;2023-12-29T00:56:49;11.17;;;6.57;;
20776;SDS011;10548;47.504;8.248;2023-12-29T00:59:18;8.97;;;6.00;;
20776;SDS011;10548;47.504;8.248;2023-12-29T01:01:46;11.07;;;7.63;;
20776;SDS011;10548;47.504;8.248;2023-12-29T01:04:14;11.47;;;7.13;;
20776;SDS011;10548;47.504;8.248;2023-12-29T01:06:42;12.03;;;8.33;;
20776;SDS011;10548;47.504;8.248;2023-12-29T01:09:09;14.27;;;8.63;;
20776;SDS011;10548;47.504;8.248;2023-12-29T01:11:38;12.43;;;8.77;;
20776;SDS011;10548;47.504;8.248;2023-12-29T01:14:06;13.30;;;8.67;;
20776;SDS011;10548;47.504;8.248;2023-12-29T01:16:34;11.77;;;7.37;;
20776;SDS011;10548;47.504;8.248;2023-12-29T01:19:01;10.93;;;7.30;;
20776;SDS011;10548;47.504;8.248;2023-12-29T01:21:29;12.27;;;7.23;;
20776;SDS011;10548;47.504;8.248;2023-12-29T01:24:01;11.00;;;6.60;;
20776;SDS011;10548;47.504;8.248;2023-12-29T01:26:30;12.90;;;7.10;;
20776;SDS011;10548;47.504;8.248;2023-12-29T01:28:58;10.03;;;6.43;;
20776;SDS011;10548;47.504;8.248;2023-12-29T01:31:28;11.73;;;7.13;;
20776;SDS011;10548;47.504;8.248;2023-12-29T01:33:57;10.70;;;6.60;;
20776;SDS011;10548;47.504;8.248;2023-12-29T01:36:24;12.27;;;7.23;;
20776;SDS011;10548;47.504;8.248;2023-12-29T01:38:52;6.60;;;5.80;;
20776;SDS011;10548;47.504;8.248;2023-12-29T01:41:20;10.50;;;6.63;;
20776;SDS011;10548;47.504;8.248;2023-12-29T01:46:48;8.50;;;6.00;;
20776;SDS011;10548;47.504;8.248;2023-12-29T01:49:17;12.43;;;6.50;;
20776;SDS011;10548;47.504;8.248;2023-12-29T01:51:45;12.17;;;6.50;;
20776;SDS011;10548;47.504;8.248;2023-12-29T01:54:14;9.37;;;6.73;;
20776;SDS011;10548;47.504;8.248;2023-12-29T01:56:42;10.40;;;6.23;;
20776;SDS011;10548;47.504;8.248;2023-12-29T01:59:09;8.13;;;5.87;;
20776;SDS011;10548;47.504;8.248;2023-12-29T02:01:50;9.00;;;6.47;;
20776;SDS011;10548;47.504;8.248;2023-12-29T02:04:18;11.93;;;6.83;;
20776;SDS011;10548;47.504;8.248;2023-12-29T02:06:46;12.03;;;6.77;;
20776;SDS011;10548;47.504;8.248;2023-12-29T02:09:13;13.23;;;6.50;;
20776;SDS011;10548;47.504;8.248;2023-12-29T02:11:44;12.40;;;6.83;;
20776;SDS011;10548;47.504;8.248;2023-12-29T02:14:11;11.87;;;6.67;;
20776;SDS011;10548;47.504;8.248;2023-12-29T02:16:59;9.07;;;5.80;;
20776;SDS011;10548;47.504;8.248;2023-12-29T02:19:50;9.50;;;6.50;;
20776;SDS011;10548;47.504;8.248;2023-12-29T02:22:17;12.77;;;6.60;;
20776;SDS011;10548;47.504;8.248;2023-12-29T02:24:46;10.90;;;7.10;;
20776;SDS011;10548;47.504;8.248;2023-12-29T02:30:32;12.73;;;7.00;;
20776;SDS011;10548;47.504;8.248;2023-12-29T02:33:04;13.37;;;7.47;;
20776;SDS011;10548;47.504;8.248;2023-12-29T02:35:33;15.10;;;7.93;;
20776;SDS011;10548;47.504;8.248;2023-12-29T02:38:02;11.17;;;7.50;;
20776;SDS011;10548;47.504;8.248;2023-12-29T02:40:29;12.77;;;7.57;;
20776;SDS011;10548;47.504;8.248;2023-12-29T02:42:57;10.87;;;7.60;;
20776;SDS011;10548;47.504;8.248;2023-12-29T02:45:25;12.40;;;6.93;;
20776;SDS011;10548;47.504;8.248;2023-12-29T02:47:52;12.93;;;7.53;;
20776;SDS011;10548;47.504;8.248;2023-12-29T02:50:20;12.27;;;7.97;;
20776;SDS011;10548;47.504;8.248;2023-12-29T02:52:47;11.50;;;8.17;;
20776;SDS011;10548;47.504;8.248;2023-12-29T02:55:15;14.77;;;8.50;;
20776;SDS011;10548;47.504;8.248;2023-12-29T02:57:43;12.97;;;8.13;;
20776;SDS011;10548;47.504;8.248;2023-12-29T03:00:11;11.97;;;8.33;;
20776;SDS011;10548;47.504;8.248;2023-12-29T03:02:38;13.27;;;7.47;;
20776;SDS011;10548;47.504;8.248;2023-12-29T03:05:06;10.57;;;7.10;;
20776;SDS011;10548;47.504;8.248;2023-12-29T03:07:34;10.70;;;7.60;;
20776;SDS011;10548;47.504;8.248;2023-12-29T03:10:02;12.17;;;6.87;;
20776;SDS011;10548;47.504;8.248;2023-12-29T03:12:29;11.00;;;7.60;;
20776;SDS011;10548;47.504;8.248;2023-12-29T03:14:57;11.20;;;6.90;;
20776;SDS011;10548;47.504;8.248;2023-12-29T03:17:25;12.57;;;7.43;;
20776;SDS011;10548;47.504;8.248;2023-12-29T03:19:54;12.37;;;7.23;;
20776;SDS011;10548;47.504;8.248;2023-12-29T03:22:22;13.80;;;8.40;;
20776;SDS011;10548;47.504;8.248;2023-12-29T03:24:50;11.23;;;7.73;;
20776;SDS011;10548;47.504;8.248;2023-12-29T03:27:18;11.10;;;7.50;;
20776;SDS011;10548;47.504;8.248;2023-12-29T03:29:45;11.13;;;7.17;;
20776;SDS011;10548;47.504;8.248;2023-12-29T03:32:13;9.23;;;6.83;;
20776;SDS011;10548;47.504;8.248;2023-12-29T03:34:42;13.13;;;7.93;;
20776;SDS011;10548;47.504;8.248;2023-12-29T03:37:10;12.67;;;7.40;;
20776;SDS011;10548;47.504;8.248;2023-12-29T03:39:38;9.13;;;7.23;;
20776;SDS011;10548;47.504;8.248;2023-12-29T03:42:06;9.33;;;7.33;;
20776;SDS011;10548;47.504;8.248;2023-12-29T03:44:33;11.20;;;7.57;;
20776;SDS011;10548;47.504;8.248;2023-12-29T03:47:00;11.50;;;8.07;;
20776;SDS011;10548;47.504;8.248;2023-12-29T03:49:28;9.43;;;7.47;;
20776;SDS011;10548;47.504;8.248;2023-12-29T03:51:55;12.10;;;7.97;;
20776;SDS011;10548;47.504;8.248;2023-12-29T03:54:23;10.20;;;7.53;;
20776;SDS011;10548;47.504;8.248;2023-12-29T03:56:51;11.70;;;8.00;;
20776;SDS011;10548;47.504;8.248;2023-12-29T03:59:18;10.90;;;7.97;;
20776;SDS011;10548;47.504;8.248;2023-12-29T04:01:46;14.40;;;8.30;;
20776;SDS011;10548;47.504;8.248;2023-12-29T04:04:13;11.33;;;8.50;;
20776;SDS011;10548;47.504;8.248;2023-12-29T04:06:41;12.77;;;7.93;;
20776;SDS011;10548;47.504;8.248;2023-12-29T04:09:09;11.13;;;8.33;;
20776;SDS011;10548;47.504;8.248;2023-12-29T04:11:36;10.73;;;7.33;;
20776;SDS011;10548;47.504;8.248;2023-12-29T04:14:04;12.00;;;8.37;;
20776;SDS011;10548;47.504;8.248;2023-12-29T04:16:31;10.93;;;7.70;;
20776;SDS011;10548;47.504;8.248;2023-12-29T04:18:59;9.73;;;7.50;;
20776;SDS011;10548;47.504;8.248;2023-12-29T04:21:26;12.40;;;7.83;;
20776;SDS011;10548;47.504;8.248;2023-12-29T04:23:53;11.93;;;7.57;;
20776;SDS011;10548;47.504;8.248;2023-12-29T04:26:22;11.90;;;8.93;;
20776;SDS011;10548;47.504;8.248;2023-12-29T04:28:50;11.23;;;8.70;;
20776;SDS011;10548;47.504;8.248;2023-12-29T04:31:17;14.37;;;9.17;;
20776;SDS011;10548;47.504;8.248;2023-12-29T04:33:45;11.10;;;8.20;;
20776;SDS011;10548;47.504;8.248;2023-12-29T04:36:12;12.27;;;8.70;;
20776;SDS011;10548;47.504;8.248;2023-12-29T04:38:40;11.40;;;7.90;;
20776;SDS011;10548;47.504;8.248;2023-12-29T04:41:07;14.40;;;8.67;;
20776;SDS011;10548;47.504;8.248;2023-12-29T04:43:35;10.40;;;7.43;;
20776;SDS011;10548;47.504;8.248;2023-12-29T04:46:02;11.40;;;7.37;;
20776;SDS011;10548;47.504;8.248;2023-12-29T04:48:29;11.13;;;7.57;;
20776;SDS011;10548;47.504;8.248;2023-12-29T04:50:57;12.93;;;7.63;;
20776;SDS011;10548;47.504;8.248;2023-12-29T04:53:24;10.97;;;7.33;;
20776;SDS011;10548;47.504;8.248;2023-12-29T04:55:52;11.03;;;7.90;;
20776;SDS011;10548;47.504;8.248;2023-12-29T04:58:19;9.40;;;7.37;;
20776;SDS011;10548;47.504;8.248;2023-12-29T05:00:47;12.70;;;7.47;;
20776;SDS011;10548;47.504;8.248;2023-12-29T05:03:14;10.80;;;8.43;;
20776;SDS011;10548;47.504;8.248;2023-12-29T05:05:42;12.87;;;8.23;;
20776;SDS011;10548;47.504;8.248;2023-12-29T05:08:09;13.77;;;7.80;;
20776;SDS011;10548;47.504;8.248;2023-12-29T05:10:37;12.27;;;8.00;;
20776;SDS011;10548;47.504;8.248;2023-12-29T05:13:05;11.63;;;8.00;;
20776;SDS011;10548;47.504;8.248;2023-12-29T05:15:32;11.80;;;7.53;;
20776;SDS011;10548;47.504;8.248;2023-12-29T05:18:00;13.70;;;7.57;;
20776;SDS011;10548;47.504;8.248;2023-12-29T05:20:28;12.77;;;8.20;;
20776;SDS011;10548;47.504;8.248;2023-12-29T05:22:55;11.47;;;7.77;;
20776;SDS011;10548;47.504;8.248;2023-12-29T05:25:22;9.90;;;7.63;;
20776;SDS011;10548;47.504;8.248;2023-12-29T05:27:50;13.80;;;8.00;;
20776;SDS011;10548;47.504;8.248;2023-12-29T05:30:17;12.03;;;8.53;;
20776;SDS011;10548;47.504;8.248;2023-12-29T05:32:45;16.30;;;8.47;;
20776;SDS011;10548;47.504;8.248;2023-12-29T05:35:13;12.10;;;8.20;;
20776;SDS011;10548;47.504;8.248;2023-12-29T05:37:40;13.87;;;8.47;;
20776;SDS011;10548;47.504;8.248;2023-12-29T05:40:08;10.53;;;7.63;;
20776;SDS011;10548;47.504;8.248;2023-12-29T05:42:35;10.50;;;7.30;;
20776;SDS011;10548;47.504;8.248;2023-12-29T05:45:03;15.80;;;7.70;;
20776;SDS011;10548;47.504;8.248;2023-12-29T05:47:31;14.03;;;6.80;;
20776;SDS011;10548;47.504;8.248;2023-12-29T05:49:58;10.77;;;7.50;;
20776;SDS011;10548;47.504;8.248;2023-12-29T05:52:26;10.23;;;7.43;;
20776;SDS011;10548;47.504;8.248;2023-12-29T05:54:53;13.20;;;8.30;;
20776;SDS011;10548;47.504;8.248;2023-12-29T05:57:20;12.83;;;7.73;;
20776;SDS011;10548;47.504;8.248;2023-12-29T05:59:48;10.10;;;6.87;;
20776;SDS011;10548;47.504;8.248;2023-12-29T06:02:15;15.10;;;7.73;;
20776;SDS011;10548;47.504;8.248;2023-12-29T06:04:42;11.67;;;7.40;;
20776;SDS011;10548;47.504;8.248;2023-12-29T06:07:09;9.53;;;7.13;;
20776;SDS011;10548;47.504;8.248;2023-12-29T06:09:36;9.57;;;6.80;;
20776;SDS011;10548;47.504;8.248;2023-12-29T06:12:04;11.83;;;7.33;;
20776;SDS011;10548;47.504;8.248;2023-12-29T06:14:31;13.10;;;8.03;;
20776;SDS011;10548;47.504;8.248;2023-12-29T06:16:58;10.60;;;7.00;;
20776;SDS011;10548;47.504;8.248;2023-12-29T06:19:25;11.23;;;7.50;;
20776;SDS011;10548;47.504;8.248;2023-12-29T06:21:55;14.43;;;7.73;;
20776;SDS011;10548;47.504;8.248;2023-12-29T06:24:22;9.80;;;7.60;;
20776;SDS011;10548;47.504;8.248;2023-12-29T06:26:49;11.90;;;8.33;;
20776;SDS011;10548;47.504;8.248;2023-12-29T06:29:16;10.67;;;6.97;;
20776;SDS011;10548;47.504;8.248;2023-12-29T06:31:43;10.90;;;7.47;;
20776;SDS011;10548;47.504;8.248;2023-12-29T06:34:11;12.23;;;7.50;;
20776;SDS011;10548;47.504;8.248;2023-12-29T06:36:38;15.00;;;10.57;;
20776;SDS011;10548;47.504;8.248;2023-12-29T06:39:06;26.97;;;17.23;;
20776;SDS011;10548;47.504;8.248;2023-12-29T06:41:34;10.70;;;8.60;;
20776;SDS011;10548;47.504;8.248;2023-12-29T06:44:01;9.97;;;7.73;;
20776;SDS011;10548;47.504;8.248;2023-12-29T06:46:28;9.77;;;7.13;;
20776;SDS011;10548;47.504;8.248;2023-12-29T06:48:55;9.20;;;6.80;;
20776;SDS011;10548;47.504;8.248;2023-12-29T06:51:23;8.73;;;6.23;;
20776;SDS011;10548;47.504;8.248;2023-12-29T06:53:50;10.07;;;7.23;;
20776;SDS011;10548;47.504;8.248;2023-12-29T06:56:17;10.10;;;7.37;;
20776;SDS011;10548;47.504;8.248;2023-12-29T06:58:45;9.80;;;7.10;;
20776;SDS011;10548;47.504;8.248;2023-12-29T07:01:12;9.10;;;6.70;;
20776;SDS011;10548;47.504;8.248;2023-12-29T07:03:40;11.40;;;6.67;;
20776;SDS011;10548;47.504;8.248;2023-12-29T07:06:09;12.53;;;6.30;;
20776;SDS011;10548;47.504;8.248;2023-12-29T07:08:37;10.50;;;6.80;;
20776;SDS011;10548;47.504;8.248;2023-12-29T07:11:08;10.50;;;6.83;;
20776;SDS011;10548;47.504;8.248;2023-12-29T07:13:37;11.40;;;7.33;;
20776;SDS011;10548;47.504;8.248;2023-12-29T07:16:04;8.40;;;5.50;;
20776;SDS011;10548;47.504;8.248;2023-12-29T07:18:32;11.73;;;6.90;;
20776;SDS011;10548;47.504;8.248;2023-12-29T07:20:59;10.80;;;7.23;;
20776;SDS011;10548;47.504;8.248;2023-12-29T07:23:27;9.23;;;7.22;;
20776;SDS011;10548;47.504;8.248;2023-12-29T07:25:55;10.77;;;7.40;;
20776;SDS011;10548;47.504;8.248;2023-12-29T07:28:22;13.00;;;7.00;;
20776;SDS011;10548;47.504;8.248;2023-12-29T07:30:50;9.33;;;6.60;;
20776;SDS011;10548;47.504;8.248;2023-12-29T07:33:17;8.13;;;6.90;;
20776;SDS011;10548;47.504;8.248;2023-12-29T07:35:45;10.93;;;6.93;;
20776;SDS011;10548;47.504;8.248;2023-12-29T07:38:12;9.37;;;6.70;;
20776;SDS011;10548;47.504;8.248;2023-12-29T07:40:40;9.47;;;7.10;;
20776;SDS011;10548;47.504;8.248;2023-12-29T07:43:07;10.00;;;6.00;;
20776;SDS011;10548;47.504;8.248;2023-12-29T07:45:35;8.43;;;6.60;;
20776;SDS011;10548;47.504;8.248;2023-12-29T07:48:04;8.30;;;6.00;;
20776;SDS011;10548;47.504;8.248;2023-12-29T07:50:36;8.23;;;5.87;;
20776;SDS011;10548;47.504;8.248;2023-12-29T07:53:04;7.63;;;6.47;;
20776;SDS011;10548;47.504;8.248;2023-12-29T07:55:32;10.07;;;6.53;;
20776;SDS011;10548;47.504;8.248;2023-12-29T07:58:00;8.70;;;5.90;;
20776;SDS011;10548;47.504;8.248;2023-12-29T08:00:27;8.77;;;5.77;;
20776;SDS011;10548;47.504;8.248;2023-12-29T08:02:55;17.23;;;6.57;;
20776;SDS011;10548;47.504;8.248;2023-12-29T08:05:22;8.33;;;5.83;;
20776;SDS011;10548;47.504;8.248;2023-12-29T08:07:50;8.93;;;6.37;;
20776;SDS011;10548;47.504;8.248;2023-12-29T08:10:17;8.07;;;5.57;;
20776;SDS011;10548;47.504;8.248;2023-12-29T08:12:45;12.90;;;5.90;;
20776;SDS011;10548;47.504;8.248;2023-12-29T08:15:12;9.67;;;6.57;;
20776;SDS011;10548;47.504;8.248;2023-12-29T08:17:39;12.50;;;6.63;;
20776;SDS011;10548;47.504;8.248;2023-12-29T08:20:07;8.73;;;5.47;;
20776;SDS011;10548;47.504;8.248;2023-12-29T08:22:35;7.30;;;5.83;;
20776;SDS011;10548;47.504;8.248;2023-12-29T08:25:02;8.30;;;5.73;;
20776;SDS011;10548;47.504;8.248;2023-12-29T08:27:30;8.10;;;5.93;;
20776;SDS011;10548;47.504;8.248;2023-12-29T08:29:57;9.10;;;5.93;;
20776;SDS011;10548;47.504;8.248;2023-12-29T08:32:25;7.97;;;5.67;;
20776;SDS011;10548;47.504;8.248;2023-12-29T08:34:52;7.73;;;5.43;;
20776;SDS011;10548;47.504;8.248;2023-12-29T08:37:19;7.77;;;5.33;;
20776;SDS011;10548;47.504;8.248;2023-12-29T08:39:47;13.27;;;6.23;;
20776;SDS011;10548;47.504;8.248;2023-12-29T08:42:15;9.63;;;5.87;;
20776;SDS011;10548;47.504;8.248;2023-12-29T08:44:42;9.77;;;5.83;;
20776;SDS011;10548;47.504;8.248;2023-12-29T08:47:10;9.43;;;5.70;;
20776;SDS011;10548;47.504;8.248;2023-12-29T08:49:37;9.57;;;6.00;;
20776;SDS011;10548;47.504;8.248;2023-12-29T08:52:05;9.23;;;6.10;;
20776;SDS011;10548;47.504;8.248;2023-12-29T08:54:32;9.87;;;6.00;;
20776;SDS011;10548;47.504;8.248;2023-12-29T08:57:00;7.60;;;5.67;;
20776;SDS011;10548;47.504;8.248;2023-12-29T08:59:28;8.27;;;5.63;;
20776;SDS011;10548;47.504;8.248;2023-12-29T09:01:55;7.17;;;5.10;;
20776;SDS011;10548;47.504;8.248;2023-12-29T09:04:23;7.23;;;5.60;;
20776;SDS011;10548;47.504;8.248;2023-12-29T09:06:50;8.13;;;5.70;;
20776;SDS011;10548;47.504;8.248;2023-12-29T09:09:18;6.77;;;5.13;;
20776;SDS011;10548;47.504;8.248;2023-12-29T09:11:45;8.10;;;5.13;;
20776;SDS011;10548;47.504;8.248;2023-12-29T09:14:13;7.13;;;5.73;;
20776;SDS011;10548;47.504;8.248;2023-12-29T09:16:41;9.50;;;5.67;;
20776;SDS011;10548;47.504;8.248;2023-12-29T09:19:10;8.90;;;5.50;;
20776;SDS011;10548;47.504;8.248;2023-12-29T09:21:40;6.97;;;5.17;;
20776;SDS011;10548;47.504;8.248;2023-12-29T09:24:08;7.17;;;5.00;;
20776;SDS011;10548;47.504;8.248;2023-12-29T09:26:35;6.73;;;5.10;;
20776;SDS011;10548;47.504;8.248;2023-12-29T09:29:03;6.70;;;5.40;;
20776;SDS011;10548;47.504;8.248;2023-12-29T09:31:30;7.70;;;4.57;;
20776;SDS011;10548;47.504;8.248;2023-12-29T09:33:58;7.57;;;5.10;;
20776;SDS011;10548;47.504;8.248;2023-12-29T09:36:27;10.23;;;5.17;;
20776;SDS011;10548;47.504;8.248;2023-12-29T09:38:54;7.03;;;6.10;;
20776;SDS011;10548;47.504;8.248;2023-12-29T09:41:23;8.30;;;5.57;;
20776;SDS011;10548;47.504;8.248;2023-12-29T09:43:51;8.07;;;5.47;;
20776;SDS011;10548;47.504;8.248;2023-12-29T09:46:20;7.60;;;5.73;;
20776;SDS011;10548;47.504;8.248;2023-12-29T09:48:50;9.13;;;5.53;;
20776;SDS011;10548;47.504;8.248;2023-12-29T09:51:19;9.83;;;5.50;;
20776;SDS011;10548;47.504;8.248;2023-12-29T09:53:50;8.43;;;5.70;;
20776;SDS011;10548;47.504;8.248;2023-12-29T09:56:18;9.67;;;6.37;;
20776;SDS011;10548;47.504;8.248;2023-12-29T09:58:49;8.43;;;5.70;;
20776;SDS011;10548;47.504;8.248;2023-12-29T10:01:18;8.30;;;5.70;;
20776;SDS011;10548;47.504;8.248;2023-12-29T10:03:48;8.83;;;5.70;;
20776;SDS011;10548;47.504;8.248;2023-12-29T10:06:16;8.40;;;5.53;;
20776;SDS011;10548;47.504;8.248;2023-12-29T10:08:48;8.47;;;5.37;;
20776;SDS011;10548;47.504;8.248;2023-12-29T10:11:22;8.43;;;4.77;;
20776;SDS011;10548;47.504;8.248;2023-12-29T10:13:52;8.43;;;4.70;;
20776;SDS011;10548;47.504;8.248;2023-12-29T10:16:28;5.70;;;4.63;;
20776;SDS011;10548;47.504;8.248;2023-12-29T10:19:22;5.67;;;4.30;;
20776;SDS011;10548;47.504;8.248;2023-12-29T10:22:08;9.00;;;4.33;;
20776;SDS011;10548;47.504;8.248;2023-12-29T10:24:37;6.90;;;4.23;;
20776;SDS011;10548;47.504;8.248;2023-12-29T10:27:05;8.23;;;5.00;;
20776;SDS011;10548;47.504;8.248;2023-12-29T10:29:32;5.93;;;4.10;;
20776;SDS011;10548;47.504;8.248;2023-12-29T10:32:00;8.10;;;4.07;;
20776;SDS011;10548;47.504;8.248;2023-12-29T10:34:28;5.30;;;3.90;;
20776;SDS011;10548;47.504;8.248;2023-12-29T10:36:56;5.47;;;4.30;;
20776;SDS011;10548;47.504;8.248;2023-12-29T10:39:33;4.13;;;3.43;;
20776;SDS011;10548;47.504;8.248;2023-12-29T10:42:04;4.03;;;3.20;;
20776;SDS011;10548;47.504;8.248;2023-12-29T10:44:33;6.50;;;4.40;;
20776;SDS011;10548;47.504;8.248;2023-12-29T10:47:08;6.57;;;4.13;;
20776;SDS011;10548;47.504;8.248;2023-12-29T10:49:36;6.15;;;3.95;;
20776;SDS011;10548;47.504;8.248;2023-12-29T10:52:14;5.03;;;3.80;;
20776;SDS011;10548;47.504;8.248;2023-12-29T10:54:42;5.40;;;3.83;;
20776;SDS011;10548;47.504;8.248;2023-12-29T10:57:11;5.93;;;3.93;;
20776;SDS011;10548;47.504;8.248;2023-12-29T10:59:39;11.63;;;4.57;;
20776;SDS011;10548;47.504;8.248;2023-12-29T11:02:06;9.57;;;4.33;;
20776;SDS011;10548;47.504;8.248;2023-12-29T11:04:35;6.00;;;3.97;;
20776;SDS011;10548;47.504;8.248;2023-12-29T11:07:02;5.53;;;3.50;;
20776;SDS011;10548;47.504;8.248;2023-12-29T11:09:30;5.73;;;3.90;;
20776;SDS011;10548;47.504;8.248;2023-12-29T11:12:01;6.27;;;3.97;;
20776;SDS011;10548;47.504;8.248;2023-12-29T11:14:29;5.10;;;3.70;;
20776;SDS011;10548;47.504;8.248;2023-12-29T11:16:57;6.10;;;3.80;;
20776;SDS011;10548;47.504;8.248;2023-12-29T11:19:28;5.53;;;3.43;;
20776;SDS011;10548;47.504;8.248;2023-12-29T11:21:56;6.60;;;3.73;;
20776;SDS011;10548;47.504;8.248;2023-12-29T11:24:24;4.37;;;3.47;;
20776;SDS011;10548;47.504;8.248;2023-12-29T11:27:04;5.33;;;3.40;;
20776;SDS011;10548;47.504;8.248;2023-12-29T11:29:34;7.27;;;3.33;;
20776;SDS011;10548;47.504;8.248;2023-12-29T11:32:02;4.00;;;3.30;;
20776;SDS011;10548;47.504;8.248;2023-12-29T11:34:34;7.63;;;3.80;;
20776;SDS011;10548;47.504;8.248;2023-12-29T11:37:11;5.10;;;3.60;;
20776;SDS011;10548;47.504;8.248;2023-12-29T11:39:50;5.43;;;3.50;;
20776;SDS011;10548;47.504;8.248;2023-12-29T11:42:26;4.33;;;3.07;;
20776;SDS011;10548;47.504;8.248;2023-12-29T11:44:57;8.90;;;3.03;;
20776;SDS011;10548;47.504;8.248;2023-12-29T11:47:43;5.20;;;3.47;;
20776;SDS011;10548;47.504;8.248;2023-12-29T11:50:11;4.83;;;3.10;;
20776;SDS011;10548;47.504;8.248;2023-12-29T11:52:38;6.60;;;3.23;;
20776;SDS011;10548;47.504;8.248;2023-12-29T11:55:13;3.83;;;2.70;;
20776;SDS011;10548;47.504;8.248;2023-12-29T11:57:46;4.40;;;2.90;;
20776;SDS011;10548;47.504;8.248;2023-12-29T12:00:14;6.77;;;3.23;;
20776;SDS011;10548;47.504;8.248;2023-12-29T12:02:43;4.77;;;2.90;;
20776;SDS011;10548;47.504;8.248;2023-12-29T12:05:11;6.27;;;2.93;;
20776;SDS011;10548;47.504;8.248;2023-12-29T12:10:30;6.10;;;2.93;;
20776;SDS011;10548;47.504;8.248;2023-12-29T12:12:59;6.33;;;3.03;;
20776;SDS011;10548;47.504;8.248;2023-12-29T12:15:31;5.50;;;2.70;;
20776;SDS011;10548;47.504;8.248;2023-12-29T12:18:00;3.67;;;2.60;;
20776;SDS011;10548;47.504;8.248;2023-12-29T12:20:31;4.73;;;2.60;;
20776;SDS011;10548;47.504;8.248;2023-12-29T12:22:59;5.40;;;2.97;;
20776;SDS011;10548;47.504;8.248;2023-12-29T12:25:30;3.27;;;2.20;;
20776;SDS011;10548;47.504;8.248;2023-12-29T12:28:04;3.30;;;2.63;;
20776;SDS011;10548;47.504;8.248;2023-12-29T12:30:32;3.53;;;2.50;;
20776;SDS011;10548;47.504;8.248;2023-12-29T12:33:03;3.70;;;2.47;;
20776;SDS011;10548;47.504;8.248;2023-12-29T12:35:32;3.90;;;2.27;;
20776;SDS011;10548;47.504;8.248;2023-12-29T12:38:10;3.13;;;2.00;;
20776;SDS011;10548;47.504;8.248;2023-12-29T12:40:38;2.93;;;1.93;;
20776;SDS011;10548;47.504;8.248;2023-12-29T12:43:06;2.47;;;1.80;;
20776;SDS011;10548;47.504;8.248;2023-12-29T12:45:35;3.77;;;2.00;;
20776;SDS011;10548;47.504;8.248;2023-12-29T12:48:18;3.03;;;2.10;;
20776;SDS011;10548;47.504;8.248;2023-12-29T12:50:47;3.30;;;2.03;;
20776;SDS011;10548;47.504;8.248;2023-12-29T12:53:15;2.60;;;2.20;;
20776;SDS011;10548;47.504;8.248;2023-12-29T12:55:47;4.77;;;2.17;;
20776;SDS011;10548;47.504;8.248;2023-12-29T12:58:17;2.83;;;1.77;;
20776;SDS011;10548;47.504;8.248;2023-12-29T13:00:45;2.97;;;2.13;;
20776;SDS011;10548;47.504;8.248;2023-12-29T13:03:17;2.70;;;1.97;;
20776;SDS011;10548;47.504;8.248;2023-12-29T13:05:45;3.57;;;1.90;;
20776;SDS011;10548;47.504;8.248;2023-12-29T13:08:12;5.27;;;2.20;;
20776;SDS011;10548;47.504;8.248;2023-12-29T13:10:51;3.10;;;1.93;;
20776;SDS011;10548;47.504;8.248;2023-12-29T13:13:19;2.47;;;1.90;;
20776;SDS011;10548;47.504;8.248;2023-12-29T13:15:50;2.60;;;1.70;;
20776;SDS011;10548;47.504;8.248;2023-12-29T13:18:18;2.23;;;1.80;;
20776;SDS011;10548;47.504;8.248;2023-12-29T13:20:55;2.57;;;2.03;;
20776;SDS011;10548;47.504;8.248;2023-12-29T13:23:26;2.43;;;1.90;;
20776;SDS011;10548;47.504;8.248;2023-12-29T13:25:55;3.03;;;1.80;;
20776;SDS011;10548;47.504;8.248;2023-12-29T13:28:24;2.50;;;1.60;;
20776;SDS011;10548;47.504;8.248;2023-12-29T13:30:52;2.00;;;1.80;;
20776;SDS011;10548;47.504;8.248;2023-12-29T13:33:33;2.30;;;1.80;;
20776;SDS011;10548;47.504;8.248;2023-12-29T13:36:08;3.70;;;2.10;;
20776;SDS011;10548;47.504;8.248;2023-12-29T13:38:39;2.13;;;1.77;;
20776;SDS011;10548;47.504;8.248;2023-12-29T13:41:12;4.83;;;1.77;;
20776;SDS011;10548;47.504;8.248;2023-12-29T13:43:42;3.10;;;1.90;;
20776;SDS011;10548;47.504;8.248;2023-12-29T13:46:12;3.00;;;1.80;;
20776;SDS011;10548;47.504;8.248;2023-12-29T13:48:40;3.00;;;1.50;;
20776;SDS011;10548;47.504;8.248;2023-12-29T13:51:09;2.07;;;1.30;;
20776;SDS011;10548;47.504;8.248;2023-12-29T13:53:36;2.37;;;1.77;;
20776;SDS011;10548;47.504;8.248;2023-12-29T13:56:10;2.97;;;1.43;;
20776;SDS011;10548;47.504;8.248;2023-12-29T13:58:37;1.90;;;1.30;;
20776;SDS011;10548;47.504;8.248;2023-12-29T14:01:06;3.97;;;1.70;;
20776;SDS011;10548;47.504;8.248;2023-12-29T14:03:43;2.20;;;1.30;;
20776;SDS011;10548;47.504;8.248;2023-12-29T14:06:19;1.60;;;1.40;;
20776;SDS011;10548;47.504;8.248;2023-12-29T14:08:47;2.00;;;1.50;;
20776;SDS011;10548;47.504;8.248;2023-12-29T14:11:15;2.10;;;1.57;;
20776;SDS011;10548;47.504;8.248;2023-12-29T14:13:45;2.30;;;1.70;;
20776;SDS011;10548;47.504;8.248;2023-12-29T14:16:16;2.47;;;1.60;;
20776;SDS011;10548;47.504;8.248;2023-12-29T14:18:54;2.83;;;1.63;;
20776;SDS011;10548;47.504;8.248;2023-12-29T14:21:26;3.27;;;1.60;;
20776;SDS011;10548;47.504;8.248;2023-12-29T14:26:53;2.43;;;1.50;;
20776;SDS011;10548;47.504;8.248;2023-12-29T14:29:26;2.70;;;1.60;;
20776;SDS011;10548;47.504;8.248;2023-12-29T14:31:54;3.03;;;1.63;;
20776;SDS011;10548;47.504;8.248;2023-12-29T14:34:26;2.83;;;1.40;;
20776;SDS011;10548;47.504;8.248;2023-12-29T14:36:54;2.30;;;1.73;;
20776;SDS011;10548;47.504;8.248;2023-12-29T14:39:22;2.17;;;1.53;;
20776;SDS011;10548;47.504;8.248;2023-12-29T14:41:50;2.50;;;1.50;;
20776;SDS011;10548;47.504;8.248;2023-12-29T14:44:19;2.07;;;1.67;;
20776;SDS011;10548;47.504;8.248;2023-12-29T14:46:47;2.87;;;1.60;;
20776;SDS011;10548;47.504;8.248;2023-12-29T14:49:14;2.20;;;1.60;;
20776;SDS011;10548;47.504;8.248;2023-12-29T14:51:42;2.50;;;1.50;;
20776;SDS011;10548;47.504;8.248;2023-12-29T14:54:09;2.07;;;1.53;;
20776;SDS011;10548;47.504;8.248;2023-12-29T14:56:37;2.43;;;1.80;;
20776;SDS011;10548;47.504;8.248;2023-12-29T14:59:04;2.13;;;1.87;;
20776;SDS011;10548;47.504;8.248;2023-12-29T15:01:32;2.70;;;1.87;;
20776;SDS011;10548;47.504;8.248;2023-12-29T15:04:00;3.37;;;1.90;;